createdAt,value
2023-03-21T00:00:13.109Z,54.73
2023-03-21T00:03:35.623Z,54.93
2023-03-21T00:06:38.961Z,55.14
2023-03-21T00:09:41.118Z,55.20
2023-03-21T00:12:43.870Z,55.23
2023-03-21T00:16:06.862Z,55.25
2023-03-21T00:19:14.735Z,55.30
2023-03-21T00:22:16.835Z,55.38
2023-03-21T00:25:19.522Z,55.38
2023-03-21T00:28:21.654Z,55.38
2023-03-21T00:31:24.539Z,55.39
2023-03-21T00:34:36.753Z,55.39
2023-03-21T00:37:45.748Z,55.40
2023-03-21T00:40:49.399Z,55.46
2023-03-21T00:43:56.001Z,55.41
2023-03-21T00:47:07.481Z,55.43
2023-03-21T00:50:12.210Z,55.48
2023-03-21T00:53:16.150Z,55.54
2023-03-21T00:56:18.552Z,55.55
2023-03-21T00:59:20.798Z,55.63
2023-03-21T01:02:27.090Z,55.64
2023-03-21T01:05:49.141Z,55.68
2023-03-21T01:08:53.382Z,55.73
2023-03-21T01:11:56.167Z,55.72
2023-03-21T01:14:58.827Z,55.79
2023-03-21T01:18:02.042Z,55.88
2023-03-21T01:21:09.576Z,55.89
2023-03-21T01:24:12.008Z,55.88
2023-03-21T01:27:15.147Z,55.92
2023-03-21T01:30:21.653Z,55.98
2023-03-21T01:33:25.893Z,55.99
2023-03-21T01:36:29.817Z,56.07
2023-03-21T01:39:37.497Z,56.15
2023-03-21T01:42:39.865Z,56.21
2023-03-21T01:46:23.955Z,56.26
2023-03-21T01:49:46.530Z,56.31
2023-03-21T01:53:07.169Z,56.44
2023-03-21T01:56:33.285Z,56.42
2023-03-21T01:59:50.216Z,56.40
2023-03-21T02:03:29.598Z,56.44
2023-03-21T02:06:57.994Z,56.47
2023-03-21T02:10:21.365Z,56.51
2023-03-21T02:13:27.695Z,56.66
2023-03-21T02:16:40.519Z,56.69
2023-03-21T02:19:53.418Z,56.64
2023-03-21T02:23:07.761Z,56.58
2023-03-21T02:26:24.783Z,56.53
2023-03-21T02:29:30.979Z,56.52
2023-03-21T02:33:11.423Z,56.58
2023-03-21T02:36:28.744Z,56.64
2023-03-21T02:39:59.158Z,56.53
2023-03-21T02:43:28.308Z,56.52
2023-03-21T02:46:51.079Z,56.58
2023-03-21T02:50:16.441Z,56.60
2023-03-21T02:53:23.597Z,56.60
2023-03-21T02:56:27.817Z,56.63
2023-03-21T02:59:35.769Z,56.64
2023-03-21T03:02:42.747Z,56.79
2023-03-21T03:05:52.524Z,56.72
2023-03-21T03:09:07.281Z,56.82
2023-03-21T03:12:24.093Z,56.88
2023-03-21T03:15:46.172Z,56.96
2023-03-21T03:18:58.564Z,56.91
2023-03-21T03:22:13.840Z,56.99
2023-03-21T03:25:32.611Z,56.99
2023-03-21T03:28:46.783Z,56.97
2023-03-21T03:32:19.622Z,56.94
2023-03-21T03:35:26.118Z,57.07
2023-03-21T03:38:31.181Z,56.94
2023-03-21T03:42:04.188Z,56.95
2023-03-21T03:45:10.916Z,57.02
2023-03-21T03:48:25.805Z,57.12
2023-03-21T03:51:36.400Z,57.18
2023-03-21T03:54:47.701Z,57.12
2023-03-21T03:57:50.459Z,57.18
2023-03-21T04:00:56.897Z,57.27
2023-03-21T04:04:12.369Z,57.18
2023-03-21T04:07:16.532Z,57.18
2023-03-21T04:10:21.604Z,57.15
2023-03-21T04:13:24.997Z,57.35
2023-03-21T04:16:57.224Z,57.26
2023-03-21T04:20:10.804Z,57.26
2023-03-21T04:23:16.578Z,57.30
2023-03-21T04:26:22.655Z,57.25
2023-03-21T04:29:45.240Z,57.28
2023-03-21T04:33:09.565Z,57.33
2023-03-21T04:36:25.257Z,57.37
2023-03-21T04:39:29.397Z,57.35
2023-03-21T04:42:32.148Z,57.62
2023-03-21T04:45:34.401Z,57.65
2023-03-21T04:48:37.014Z,57.59
2023-03-21T04:51:40.147Z,57.43
2023-03-21T04:54:47.309Z,57.34
2023-03-21T04:57:49.740Z,57.36
2023-03-21T05:00:53.449Z,57.40
2023-03-21T05:03:56.797Z,57.34
2023-03-21T05:06:59.535Z,57.33
2023-03-21T05:10:02.788Z,57.25
2023-03-21T05:13:07.492Z,57.26
2023-03-21T05:16:10.193Z,57.30
2023-03-21T05:19:14.649Z,57.36
2023-03-21T05:22:19.523Z,57.40
2023-03-21T05:25:34.463Z,57.45
2023-03-21T05:28:45.321Z,57.49
2023-03-21T05:31:48.302Z,57.56
2023-03-21T05:34:50.943Z,57.60
2023-03-21T05:37:57.473Z,57.58
2023-03-21T05:41:02.903Z,57.71
2023-03-21T05:44:07.542Z,57.71
2023-03-21T05:47:11.893Z,57.65
2023-03-21T05:50:21.051Z,57.67
2023-03-21T05:53:36.379Z,57.72
2023-03-21T05:56:39.435Z,57.74
2023-03-21T05:59:46.329Z,57.84
2023-03-21T06:02:49.046Z,57.74
2023-03-21T06:06:08.104Z,57.70
2023-03-21T06:09:26.374Z,57.74
2023-03-21T06:12:33.666Z,57.79
2023-03-21T06:15:45.256Z,57.84
2023-03-21T06:18:52.625Z,57.82
2023-03-21T06:22:15.742Z,57.90
2023-03-21T06:25:18.351Z,57.91
2023-03-21T06:28:21.111Z,57.96
2023-03-21T06:31:26.713Z,57.94
2023-03-21T06:34:37.335Z,57.91
2023-03-21T06:37:41.129Z,57.90
2023-03-21T06:40:49.617Z,57.96
2023-03-21T06:43:52.708Z,57.97
2023-03-21T06:46:55.661Z,57.96
2023-03-21T06:49:58.004Z,57.99
2023-03-21T06:53:01.013Z,58.00
2023-03-21T06:56:09.962Z,57.96
2023-03-21T06:59:13.545Z,58.02
2023-03-21T07:02:36.307Z,58.14
2023-03-21T07:05:45.210Z,58.06
2023-03-21T07:08:48.161Z,58.15
2023-03-21T07:11:53.658Z,58.15
2023-03-21T07:14:58.922Z,58.09
2023-03-21T07:18:01.842Z,58.11
2023-03-21T07:21:04.564Z,58.00
2023-03-21T07:24:07.464Z,58.03
2023-03-21T07:27:10.860Z,57.97
2023-03-21T07:30:14.296Z,58.14
2023-03-21T07:33:17.311Z,58.34
2023-03-21T07:36:22.395Z,58.36
2023-03-21T07:39:26.411Z,58.35
2023-03-21T07:42:29.330Z,58.28
2023-03-21T07:45:36.063Z,58.24
2023-03-21T07:48:43.561Z,58.35
2023-03-21T07:51:46.630Z,59.13
2023-03-21T07:54:49.824Z,59.38
2023-03-21T08:02:15.782Z,59.48
2023-03-21T08:05:19.597Z,59.09
2023-03-21T08:08:22.064Z,59.15
2023-03-21T08:11:24.886Z,58.83
2023-03-21T08:14:27.240Z,58.37
2023-03-21T08:17:29.413Z,58.00
2023-03-21T08:20:32.220Z,58.06
2023-03-21T08:23:35.175Z,57.90
2023-03-21T08:26:38.404Z,57.80
2023-03-21T08:29:42.616Z,57.83
2023-03-21T08:32:45.515Z,57.61
2023-03-21T08:35:47.885Z,57.59
2023-03-21T08:38:55.404Z,57.54
2023-03-21T08:41:59.294Z,57.48
2023-03-21T08:45:02.915Z,57.76
2023-03-21T08:48:06.968Z,57.73
2023-03-21T08:51:12.629Z,57.61
2023-03-21T08:54:20.943Z,57.28
2023-03-21T08:57:23.712Z,57.04
2023-03-21T09:00:26.312Z,57.07
2023-03-21T09:03:30.744Z,57.13
2023-03-21T09:06:34.025Z,56.88
2023-03-21T09:09:37.581Z,56.94
2023-03-21T09:12:40.168Z,56.58
2023-03-21T09:15:43.182Z,57.28
2023-03-21T09:18:47.586Z,57.10
2023-03-21T09:21:51.323Z,57.15
2023-03-21T09:24:54.541Z,57.28
2023-03-21T09:27:58.618Z,57.08
2023-03-21T09:31:02.760Z,57.26
2023-03-21T09:34:06.144Z,57.40
2023-03-21T09:37:13.565Z,57.38
2023-03-21T09:40:21.803Z,57.59
2023-03-21T09:43:50.301Z,57.58
2023-03-21T09:47:14.439Z,58.17
2023-03-21T09:50:28.070Z,57.81
2023-03-21T09:53:39.164Z,58.12
2023-03-21T09:56:42.723Z,58.94
2023-03-21T09:59:48.586Z,59.25
2023-03-21T10:02:55.079Z,58.95
2023-03-21T10:06:01.728Z,58.27
2023-03-21T10:09:07.568Z,57.79
2023-03-21T10:12:23.170Z,57.76
2023-03-21T10:15:27.239Z,57.99
2023-03-21T10:18:31.520Z,57.78
2023-03-21T10:21:59.687Z,57.44
2023-03-21T10:25:01.243Z,58.22
2023-03-21T10:28:07.202Z,58.13
2023-03-21T10:31:14.643Z,58.65
2023-03-21T10:34:24.142Z,58.77
2023-03-21T10:37:27.865Z,58.50
2023-03-21T10:40:30.173Z,58.45
2023-03-21T10:43:39.229Z,57.67
2023-03-21T10:46:56.858Z,57.22
2023-03-21T10:50:10.865Z,58.20
2023-03-21T10:53:21.081Z,57.46
2023-03-21T10:56:29.584Z,57.22
2023-03-21T10:59:49.603Z,56.89
2023-03-21T11:02:54.759Z,57.35
2023-03-21T11:06:03.463Z,56.83
2023-03-21T11:09:16.928Z,56.86
2023-03-21T11:12:32.445Z,56.34
2023-03-21T11:15:39.239Z,56.29
2023-03-21T11:18:44.800Z,56.27
2023-03-21T11:21:48.057Z,56.14
2023-03-21T11:24:57.678Z,55.81
2023-03-21T11:28:07.572Z,55.93
2023-03-21T11:31:10.381Z,55.88
2023-03-21T11:35:28.019Z,55.97
2023-03-21T11:38:40.074Z,55.63
2023-03-21T11:42:04.630Z,55.99
2023-03-21T11:45:58.672Z,55.48
2023-03-21T11:49:02.919Z,55.44
2023-03-21T11:52:43.654Z,55.59
2023-03-21T11:55:53.505Z,55.10
2023-03-21T11:59:28.377Z,55.22
2023-03-21T12:02:55.510Z,55.25
2023-03-21T12:06:02.627Z,55.14
2023-03-21T12:09:12.287Z,54.99
2023-03-21T12:12:42.485Z,54.57
2023-03-21T12:15:54.340Z,54.38
2023-03-21T12:19:22.817Z,54.45
2023-03-21T12:22:38.323Z,54.18
2023-03-21T12:26:11.276Z,54.14
2023-03-21T12:29:35.708Z,54.20
2023-03-21T12:33:05.427Z,54.32
2023-03-21T12:36:34.799Z,54.15
2023-03-21T12:39:40.787Z,54.01
2023-03-21T12:43:02.299Z,54.18
2023-03-21T12:46:11.819Z,53.95
2023-03-21T12:49:30.586Z,53.84
2023-03-21T12:52:42.868Z,53.66
2023-03-21T12:55:46.154Z,53.63
2023-03-21T12:58:54.826Z,53.49
2023-03-21T13:02:05.855Z,53.49
2023-03-21T13:05:20.090Z,53.68
2023-03-21T13:08:22.636Z,53.64
2023-03-21T13:11:28.972Z,53.56
2023-03-21T13:14:38.506Z,53.35
2023-03-21T13:17:45.737Z,53.34
2023-03-21T13:21:01.288Z,53.66
2023-03-21T13:24:20.696Z,52.46
2023-03-21T13:27:40.535Z,53.66
2023-03-21T13:30:42.831Z,54.14
2023-03-21T13:33:54.126Z,53.94
2023-03-21T13:36:58.058Z,54.36
2023-03-21T13:40:12.231Z,54.21
2023-03-21T13:43:35.965Z,53.99
2023-03-21T13:47:05.996Z,54.02
2023-03-21T13:50:20.588Z,54.11
2023-03-21T13:53:25.849Z,54.10
2023-03-21T13:56:31.543Z,54.09
2023-03-21T13:59:42.987Z,54.40
2023-03-21T14:03:09.880Z,54.51
2023-03-21T14:06:15.249Z,54.20
2023-03-21T14:09:42.916Z,54.26
2023-03-21T14:12:47.784Z,54.03
2023-03-21T14:15:56.329Z,54.36
2023-03-21T14:19:05.328Z,54.22
2023-03-21T14:22:13.667Z,54.31
2023-03-21T14:25:19.083Z,54.21
2023-03-21T14:28:26.049Z,54.26
2023-03-21T14:31:28.983Z,54.31
2023-03-21T14:34:35.482Z,54.49
2023-03-21T14:37:41.718Z,54.46
2023-03-21T14:40:51.957Z,54.69
2023-03-21T14:44:17.777Z,54.75
2023-03-21T14:47:26.280Z,54.62
2023-03-21T14:50:51.583Z,54.32
2023-03-21T14:53:53.735Z,54.91
2023-03-21T14:57:02.998Z,54.76
2023-03-21T15:00:14.739Z,55.06
2023-03-21T15:03:19.957Z,55.28
2023-03-21T15:06:21.947Z,54.97
2023-03-21T15:09:27.588Z,55.13
2023-03-21T15:12:30.896Z,54.91
2023-03-21T15:15:33.825Z,54.87
2023-03-21T15:18:38.761Z,54.88
2023-03-21T15:21:49.221Z,54.80
2023-03-21T15:24:57.430Z,54.90
2023-03-21T15:28:00.775Z,54.94
2023-03-21T15:31:07.555Z,55.04
2023-03-21T15:34:21.344Z,55.03
2023-03-21T15:37:27.521Z,54.98
2023-03-21T15:40:34.863Z,54.87
2023-03-21T15:43:41.375Z,54.93
2023-03-21T15:46:48.625Z,55.22
2023-03-21T15:49:55.963Z,55.32
2023-03-21T15:53:02.798Z,55.36
2023-03-21T15:56:09.884Z,55.34
2023-03-21T15:59:18.713Z,55.33
2023-03-21T16:02:24.432Z,55.31
2023-03-21T16:05:33.469Z,55.35
2023-03-21T16:08:38.659Z,55.50
2023-03-21T16:11:49.404Z,55.53
2023-03-21T16:14:52.287Z,55.58
2023-03-21T16:17:57.711Z,55.74
2023-03-21T16:21:00.221Z,55.79
2023-03-21T16:24:03.461Z,55.80
2023-03-21T16:27:05.891Z,55.88
2023-03-21T16:30:12.208Z,55.83
2023-03-21T16:33:14.464Z,56.01
2023-03-21T16:36:24.245Z,56.10
2023-03-21T16:39:27.286Z,55.99
2023-03-21T16:42:30.764Z,56.10
2023-03-21T16:45:34.051Z,56.26
2023-03-21T16:48:39.119Z,56.52
2023-03-21T16:51:41.485Z,56.11
2023-03-21T16:54:44.474Z,55.88
2023-03-21T16:57:47.187Z,56.03
2023-03-21T17:00:49.886Z,56.33
2023-03-21T17:03:52.689Z,56.84
2023-03-21T17:06:56.461Z,57.43
2023-03-21T17:09:58.834Z,56.93
2023-03-21T17:13:01.765Z,56.55
2023-03-21T17:16:06.909Z,56.76
2023-03-21T17:19:22.777Z,56.32
2023-03-21T17:22:25.164Z,56.52
2023-03-21T17:25:27.887Z,56.52
2023-03-21T17:28:30.354Z,56.29
2023-03-21T17:31:35.917Z,56.63
2023-03-21T17:34:37.981Z,56.53
2023-03-21T17:37:40.781Z,56.43
2023-03-21T17:40:43.067Z,56.53
2023-03-21T17:43:46.037Z,56.44
2023-03-21T17:46:51.977Z,57.01
2023-03-21T17:49:55.085Z,56.87
2023-03-21T17:52:58.366Z,56.63
2023-03-21T17:56:01.363Z,56.11
2023-03-21T17:59:07.981Z,56.06
2023-03-21T18:02:11.895Z,56.37
2023-03-21T18:05:14.507Z,56.14
2023-03-21T18:08:17.649Z,56.38
2023-03-21T18:11:23.285Z,56.46
2023-03-21T18:14:29.110Z,56.48
2023-03-21T18:17:32.941Z,56.64
2023-03-21T18:20:51.215Z,56.54
2023-03-21T18:23:55.048Z,56.83
2023-03-21T18:26:57.582Z,56.68
2023-03-21T18:30:32.792Z,56.76
2023-03-21T18:33:22.939Z,56.90
2023-03-21T18:36:28.234Z,56.70
2023-03-21T18:39:34.229Z,56.63
2023-03-21T18:42:37.179Z,56.59
2023-03-21T18:45:39.743Z,56.61
2023-03-21T18:48:42.940Z,57.05
2023-03-21T18:51:48.336Z,57.03
2023-03-21T18:54:53.530Z,57.09
2023-03-21T18:57:56.349Z,57.16
2023-03-21T19:00:58.778Z,57.12
2023-03-21T19:04:21.021Z,57.08
2023-03-21T19:07:26.346Z,57.06
2023-03-21T19:10:29.123Z,57.17
2023-03-21T19:13:32.071Z,57.14
2023-03-21T19:17:07.207Z,57.16
2023-03-21T19:19:59.299Z,56.93
2023-03-21T19:23:02.919Z,57.05
2023-03-21T19:26:56.041Z,56.95
2023-03-21T19:30:13.826Z,57.01
2023-03-21T19:33:18.362Z,57.28
2023-03-21T19:36:51.210Z,57.20
2023-03-21T19:39:51.241Z,57.43
2023-03-21T19:43:32.392Z,57.08
2023-03-21T19:46:35.375Z,57.23
2023-03-21T19:50:20.839Z,57.05
2023-03-21T19:53:02.729Z,57.16
2023-03-21T19:56:19.659Z,57.05
2023-03-21T19:59:23.402Z,56.69
2023-03-21T20:02:35.675Z,57.34
2023-03-21T20:05:38.710Z,57.06
2023-03-21T20:12:05.831Z,57.19
2023-03-21T20:15:17.346Z,57.45
2023-03-21T20:18:24.523Z,57.40
2023-03-21T20:21:34.790Z,57.60
2023-03-21T20:24:38.838Z,57.57
2023-03-21T20:27:43.451Z,57.42
2023-03-21T20:30:49.445Z,57.92
2023-03-21T20:33:52.673Z,58.04
2023-03-21T20:36:55.062Z,57.64
2023-03-21T20:39:57.524Z,58.15
2023-03-21T20:43:28.411Z,58.17
2023-03-21T20:46:24.255Z,57.94
2023-03-21T20:49:26.557Z,57.84
2023-03-21T20:55:53.739Z,57.70
2023-03-21T20:59:08.540Z,57.70
2023-03-21T21:02:17.637Z,57.69
2023-03-21T21:05:35.431Z,57.73
2023-03-21T21:08:38.891Z,57.71
2023-03-21T21:15:03.593Z,57.62
2023-03-21T21:18:07.591Z,57.54
2023-03-21T21:21:10.065Z,57.69
2023-03-21T21:24:14.578Z,57.97
2023-03-21T21:27:16.711Z,58.12
2023-03-21T21:30:19.121Z,58.38
2023-03-21T21:33:21.636Z,58.39
2023-03-21T21:36:33.649Z,58.27
2023-03-21T21:39:35.984Z,58.22
2023-03-21T21:42:39.602Z,58.32
2023-03-21T21:45:42.339Z,58.68
2023-03-21T21:48:44.873Z,58.46
2023-03-21T21:51:48.084Z,58.32
2023-03-21T21:54:50.738Z,58.13
2023-03-21T21:57:53.186Z,58.57
2023-03-21T22:01:00.072Z,59.13
2023-03-21T22:04:10.729Z,59.06
2023-03-21T22:07:14.798Z,58.96
2023-03-21T22:10:16.751Z,59.01
2023-03-21T22:13:19.077Z,58.36
2023-03-21T22:16:21.142Z,58.07
2023-03-21T22:19:23.625Z,57.89
2023-03-21T22:22:25.967Z,57.65
2023-03-21T22:25:28.358Z,57.33
2023-03-21T22:28:31.581Z,57.50
2023-03-21T22:31:34.080Z,57.17
2023-03-21T22:34:36.184Z,57.16
2023-03-21T22:37:41.335Z,57.10
2023-03-21T22:40:43.503Z,56.76
2023-03-21T22:43:45.708Z,56.85
2023-03-21T22:46:47.631Z,56.62
2023-03-21T22:49:50.310Z,56.69
2023-03-21T22:52:52.334Z,56.59
2023-03-21T22:55:55.641Z,56.32
2023-03-21T22:59:00.232Z,56.42
2023-03-21T23:02:02.415Z,56.32
2023-03-21T23:05:04.681Z,56.11
2023-03-21T23:08:07.577Z,56.07
2023-03-21T23:11:10.018Z,56.07
2023-03-21T23:14:15.220Z,55.88
2023-03-21T23:17:17.657Z,55.74
2023-03-21T23:20:19.902Z,55.77
2023-03-21T23:23:21.872Z,56.10
2023-03-21T23:26:24.145Z,56.08
2023-03-21T23:29:26.059Z,55.95
2023-03-21T23:32:28.610Z,55.90
2023-03-21T23:35:34.572Z,55.80
2023-03-21T23:38:37.241Z,55.76
2023-03-21T23:41:41.616Z,55.63
2023-03-21T23:44:44.335Z,55.24
2023-03-21T23:47:46.633Z,55.54
2023-03-21T23:50:49.088Z,55.52
2023-03-21T23:53:51.501Z,55.61
2023-03-21T23:56:53.638Z,55.68
2023-03-21T23:59:56.354Z,55.71
